createdAt,value
2019-04-30T00:00:08.507Z,10.68
2019-04-30T00:03:06.634Z,11.83
2019-04-30T00:05:53.873Z,12.03
2019-04-30T00:08:41.658Z,17.25
2019-04-30T00:11:29.137Z,11.83
2019-04-30T00:14:16.567Z,13.65
2019-04-30T00:17:03.615Z,11.63
2019-04-30T00:19:54.518Z,10.15
2019-04-30T00:22:46.540Z,11.80
2019-04-30T00:25:28.734Z,10.08
2019-04-30T00:28:15.988Z,10.78
2019-04-30T00:31:03.124Z,12.60
2019-04-30T00:33:52.702Z,14.03
2019-04-30T00:36:38.851Z,11.63
2019-04-30T00:39:27.260Z,17.45
2019-04-30T00:42:17.276Z,8.10
2019-04-30T00:45:09.576Z,10.25
2019-04-30T00:47:55.952Z,8.85
2019-04-30T00:50:45.658Z,15.43
2019-04-30T00:53:33.718Z,14.35
2019-04-30T00:56:24.648Z,17.37
2019-04-30T00:59:10.927Z,11.25
2019-04-30T01:02:20.187Z,11.88
2019-04-30T01:05:11.383Z,12.47
2019-04-30T01:08:01.385Z,11.73
2019-04-30T01:10:48.583Z,10.95
2019-04-30T01:13:35.540Z,16.62
2019-04-30T01:16:23.697Z,15.68
2019-04-30T01:19:21.276Z,14.30
2019-04-30T01:22:00.664Z,14.45
2019-04-30T01:24:49.625Z,11.22
2019-04-30T01:27:39.429Z,11.33
2019-04-30T01:30:26.116Z,12.03
2019-04-30T01:33:13.636Z,10.82
2019-04-30T01:36:03.999Z,9.93
2019-04-30T01:38:52.415Z,12.30
2019-04-30T01:41:40.208Z,10.60
2019-04-30T01:44:29.395Z,10.53
2019-04-30T01:47:16.014Z,11.80
2019-04-30T01:50:04.894Z,14.00
2019-04-30T01:52:52.886Z,13.70
2019-04-30T01:55:59.083Z,13.28
2019-04-30T01:58:51.979Z,13.98
2019-04-30T02:01:40.785Z,12.90
2019-04-30T02:04:29.005Z,17.15
2019-04-30T02:07:16.402Z,13.85
2019-04-30T02:10:04.350Z,12.63
2019-04-30T02:12:51.683Z,13.25
2019-04-30T02:15:39.609Z,12.43
2019-04-30T02:18:30.400Z,13.35
2019-04-30T02:21:19.496Z,16.30
2019-04-30T02:24:10.949Z,10.35
2019-04-30T02:26:57.195Z,13.90
2019-04-30T02:29:45.265Z,13.53
2019-04-30T02:32:32.430Z,13.55
2019-04-30T02:35:41.213Z,12.23
2019-04-30T02:38:31.655Z,17.50
2019-04-30T02:41:21.160Z,14.15
2019-04-30T02:44:09.746Z,15.10
2019-04-30T02:47:00.571Z,12.73
2019-04-30T02:49:53.465Z,16.10
2019-04-30T02:52:40.558Z,13.43
2019-04-30T02:55:42.322Z,11.88
2019-04-30T02:58:29.567Z,12.20
2019-04-30T03:01:16.520Z,12.37
2019-04-30T03:04:03.796Z,13.25
2019-04-30T03:06:52.675Z,14.13
2019-04-30T03:09:39.784Z,16.77
2019-04-30T03:12:26.486Z,15.88
2019-04-30T03:15:14.941Z,16.12
2019-04-30T03:18:10.058Z,13.53
2019-04-30T03:21:19.149Z,19.07
2019-04-30T03:24:10.465Z,11.28
2019-04-30T03:26:55.756Z,11.57
2019-04-30T03:29:42.460Z,14.50
2019-04-30T03:32:31.610Z,12.23
2019-04-30T03:35:22.849Z,15.60
2019-04-30T03:38:16.039Z,11.00
2019-04-30T03:41:00.745Z,12.43
2019-04-30T03:43:50.164Z,13.40
2019-04-30T03:46:39.796Z,17.20
2019-04-30T03:49:26.801Z,16.20
2019-04-30T03:52:13.693Z,41.28
2019-04-30T03:55:02.925Z,28.57
2019-04-30T03:57:51.921Z,16.12
2019-04-30T04:01:06.160Z,20.43
2019-04-30T04:04:20.207Z,15.63
2019-04-30T04:07:39.473Z,15.45
2019-04-30T04:10:46.276Z,14.38
2019-04-30T04:13:33.143Z,17.77
2019-04-30T04:16:20.334Z,16.23
2019-04-30T04:19:09.632Z,18.52
2019-04-30T04:21:56.696Z,18.87
2019-04-30T04:24:43.759Z,19.17
2019-04-30T04:27:33.369Z,19.37
2019-04-30T04:30:23.202Z,20.08
2019-04-30T04:33:10.446Z,23.87
2019-04-30T04:35:59.784Z,25.35
2019-04-30T04:38:45.900Z,25.92
2019-04-30T04:41:33.510Z,22.27
2019-04-30T04:44:21.421Z,14.55
2019-04-30T04:47:09.896Z,18.48
2019-04-30T04:50:00.754Z,17.27
2019-04-30T04:53:19.332Z,13.50
2019-04-30T07:28:54.722Z,9.90
2019-04-30T08:21:28.913Z,7.15
2019-04-30T08:28:09.139Z,11.70
2019-04-30T08:30:59.056Z,12.50
2019-04-30T08:48:50.898Z,10.45
2019-04-30T08:51:36.118Z,15.95
2019-04-30T08:54:25.393Z,21.80
2019-04-30T08:57:14.919Z,13.45
2019-04-30T09:15:46.712Z,9.50
2019-04-30T13:32:26.940Z,16.32
2019-04-30T17:28:55.008Z,25.95
2019-04-30T17:36:51.497Z,22.93
2019-04-30T17:49:00.446Z,21.23
2019-04-30T18:06:55.308Z,20.70
2019-04-30T18:08:59.423Z,24.07
2019-04-30T18:11:56.761Z,28.10
2019-04-30T18:14:49.470Z,26.55
2019-04-30T18:17:36.327Z,25.10
2019-04-30T18:20:32.487Z,28.02
2019-04-30T18:23:36.362Z,26.27
2019-04-30T18:26:24.181Z,25.12
2019-04-30T18:29:11.388Z,24.50
2019-04-30T18:31:59.907Z,31.30
2019-04-30T18:34:49.156Z,24.63
2019-04-30T19:06:36.052Z,29.35
2019-04-30T19:29:18.366Z,34.40
2019-04-30T20:18:41.400Z,30.92
